ITY7914 LIML-LMML
Flight info
| Callsign | ITY7914 |
|---|---|
| Flight time | 1h 37m |
| Altitude | 37000 |
| Route | EKPAL DCT BEROK DCT TINKU DCT GILIO DCT RONAB DCT SENTI DCT RATOK DCT UPLIT M732 GZO |
| Aircraft | A320/M-SDE3FGHIRWY/LB1 |
Departure
| Time | 2026-05-05 14:11 |
|---|---|
| Airport | Milano Linate Airport (LIML) |
Arrival
| Time | 2026-05-05 15:49 |
|---|---|
| Airport | Malta International Airport (LMML) |
| Time | Latitude | Longitude | Altitude | Speed | Heading |
|---|---|---|---|---|---|
| 2026-05-05 13:51 | 45.45974 | 9.27904 | 360 ft | 0 kts | 360° |
| 2026-05-05 14:03 | 45.45967 | 9.27904 | 363 ft | 4 kts | 360° |
| 2026-05-05 14:03 | 45.45941 | 9.27903 | 360 ft | 3 kts | 360° |
| 2026-05-05 14:03 | 45.45920 | 9.27901 | 360 ft | 4 kts | 32° |
| 2026-05-05 14:03 | 45.45908 | 9.27875 | 363 ft | 4 kts | 88° |
| 2026-05-05 14:04 | 45.45907 | 9.27874 | 363 ft | 4 kts | 90° |
| 2026-05-05 14:04 | 45.45907 | 9.27902 | 360 ft | 0 kts | 90° |
| 2026-05-05 14:06 | 45.45907 | 9.27919 | 365 ft | 6 kts | 90° |
| 2026-05-05 14:06 | 45.45891 | 9.27971 | 362 ft | 6 kts | 143° |
| 2026-05-05 14:06 | 45.45814 | 9.27983 | 361 ft | 15 kts | 180° |
| 2026-05-05 14:07 | 45.45708 | 9.27981 | 360 ft | 16 kts | 180° |
| 2026-05-05 14:07 | 45.45594 | 9.27980 | 360 ft | 17 kts | 181° |
| 2026-05-05 14:07 | 45.45474 | 9.27977 | 360 ft | 18 kts | 181° |
| 2026-05-05 14:07 | 45.45350 | 9.27950 | 366 ft | 19 kts | 206° |
| 2026-05-05 14:08 | 45.45229 | 9.27877 | 360 ft | 19 kts | 192° |
| 2026-05-05 14:08 | 45.45092 | 9.27878 | 361 ft | 20 kts | 176° |
| 2026-05-05 14:08 | 45.44944 | 9.27903 | 360 ft | 24 kts | 163° |
| 2026-05-05 14:08 | 45.44768 | 9.27947 | 363 ft | 26 kts | 175° |
| 2026-05-05 14:09 | 45.44584 | 9.27967 | 362 ft | 27 kts | 175° |
| 2026-05-05 14:09 | 45.44397 | 9.27987 | 364 ft | 27 kts | 175° |
| 2026-05-05 14:09 | 45.44206 | 9.28008 | 360 ft | 28 kts | 175° |
| 2026-05-05 14:09 | 45.44012 | 9.28029 | 362 ft | 28 kts | 176° |
| 2026-05-05 14:10 | 45.43816 | 9.28049 | 360 ft | 28 kts | 176° |
| 2026-05-05 14:10 | 45.43618 | 9.28072 | 361 ft | 29 kts | 175° |
| 2026-05-05 14:10 | 45.43456 | 9.28033 | 361 ft | 21 kts | 240° |
| 2026-05-05 14:10 | 45.43454 | 9.27850 | 364 ft | 16 kts | 304° |
| 2026-05-05 14:11 | 45.43569 | 9.27809 | 363 ft | 27 kts | 355° |
| 2026-05-05 14:11 | 45.44041 | 9.27758 | 363 ft | 105 kts | 356° |
| 2026-05-05 14:11 | 45.44985 | 9.27663 | 376 ft | 162 kts | 359° |
| 2026-05-05 14:11 | 45.46136 | 9.27524 | 961 ft | 167 kts | 358° |
| 2026-05-05 14:12 | 45.47303 | 9.27371 | 1705 ft | 169 kts | 357° |
| 2026-05-05 14:12 | 45.48540 | 9.27206 | 2086 ft | 190 kts | 1° |
| 2026-05-05 14:12 | 45.49858 | 9.27669 | 2402 ft | 207 kts | 43° |
| 2026-05-05 14:12 | 45.50607 | 9.29409 | 2975 ft | 214 kts | 85° |
| 2026-05-05 14:13 | 45.50366 | 9.31475 | 3733 ft | 214 kts | 111° |
| 2026-05-05 14:13 | 45.49842 | 9.33483 | 4497 ft | 218 kts | 110° |
| 2026-05-05 14:13 | 45.49357 | 9.35518 | 5219 ft | 222 kts | 109° |
| 2026-05-05 14:13 | 45.48874 | 9.37627 | 5991 ft | 229 kts | 112° |
| 2026-05-05 14:14 | 45.48091 | 9.39603 | 6536 ft | 231 kts | 139° |
| 2026-05-05 14:14 | 45.46723 | 9.40900 | 6870 ft | 247 kts | 162° |
| 2026-05-05 14:14 | 45.45029 | 9.41721 | 7226 ft | 267 kts | 163° |
| 2026-05-05 14:14 | 45.43250 | 9.42609 | 7888 ft | 274 kts | 163° |
| 2026-05-05 14:15 | 45.41447 | 9.43543 | 8673 ft | 277 kts | 162° |
| 2026-05-05 14:15 | 45.39629 | 9.44506 | 9456 ft | 281 kts | 162° |
| 2026-05-05 14:15 | 45.37789 | 9.45490 | 10235 ft | 284 kts | 162° |
| 2026-05-05 14:15 | 45.35927 | 9.46489 | 10940 ft | 287 kts | 163° |
| 2026-05-05 14:16 | 45.34050 | 9.47498 | 11650 ft | 290 kts | 163° |
| 2026-05-05 14:16 | 45.32148 | 9.48519 | 12351 ft | 294 kts | 163° |
| 2026-05-05 14:16 | 45.30226 | 9.49551 | 13067 ft | 297 kts | 164° |
| 2026-05-05 14:16 | 45.28281 | 9.50592 | 13828 ft | 300 kts | 164° |
| 2026-05-05 14:17 | 45.26316 | 9.51666 | 14416 ft | 309 kts | 161° |
| 2026-05-05 14:17 | 45.24327 | 9.53152 | 14535 ft | 334 kts | 155° |
| 2026-05-05 14:17 | 45.22251 | 9.54848 | 14707 ft | 353 kts | 154° |
| 2026-05-05 14:17 | 45.20122 | 9.56659 | 15183 ft | 360 kts | 154° |
| 2026-05-05 14:18 | 45.17976 | 9.58514 | 15779 ft | 363 kts | 154° |
| 2026-05-05 14:18 | 45.15815 | 9.60379 | 16387 ft | 365 kts | 154° |
| 2026-05-05 14:18 | 45.13635 | 9.62245 | 17006 ft | 367 kts | 154° |
| 2026-05-05 14:18 | 45.11433 | 9.64110 | 17603 ft | 370 kts | 155° |
| 2026-05-05 14:19 | 45.09209 | 9.65976 | 18172 ft | 373 kts | 155° |
| 2026-05-05 14:19 | 45.06961 | 9.67853 | 18692 ft | 376 kts | 155° |
| 2026-05-05 14:19 | 45.04694 | 9.69740 | 19199 ft | 380 kts | 155° |
| 2026-05-05 14:19 | 45.02409 | 9.71640 | 19700 ft | 383 kts | 155° |
| 2026-05-05 14:20 | 45.00104 | 9.73563 | 20204 ft | 386 kts | 155° |
| 2026-05-05 14:20 | 44.97780 | 9.75504 | 20717 ft | 390 kts | 155° |
| 2026-05-05 14:20 | 44.95432 | 9.77461 | 21178 ft | 394 kts | 155° |
| 2026-05-05 14:20 | 44.93062 | 9.79435 | 21678 ft | 398 kts | 155° |
| 2026-05-05 14:21 | 44.90668 | 9.81428 | 22142 ft | 401 kts | 155° |
| 2026-05-05 14:21 | 44.88254 | 9.83437 | 22605 ft | 405 kts | 155° |
| 2026-05-05 14:21 | 44.85817 | 9.85458 | 23062 ft | 408 kts | 155° |
| 2026-05-05 14:21 | 44.83357 | 9.87493 | 23497 ft | 412 kts | 155° |
| 2026-05-05 14:22 | 44.80881 | 9.89540 | 23876 ft | 415 kts | 155° |
| 2026-05-05 14:22 | 44.78383 | 9.91604 | 24245 ft | 417 kts | 155° |
| 2026-05-05 14:22 | 44.75879 | 9.93673 | 24606 ft | 419 kts | 155° |
| 2026-05-05 14:22 | 44.73357 | 9.95756 | 24927 ft | 421 kts | 155° |
| 2026-05-05 14:23 | 44.70820 | 9.97851 | 25274 ft | 424 kts | 155° |
| 2026-05-05 14:23 | 44.68268 | 9.99959 | 25629 ft | 426 kts | 155° |
| 2026-05-05 14:23 | 44.65703 | 10.02076 | 26004 ft | 428 kts | 155° |
| 2026-05-05 14:23 | 44.63130 | 10.04196 | 26363 ft | 430 kts | 155° |
| 2026-05-05 14:24 | 44.60581 | 10.06289 | 26722 ft | 432 kts | 155° |
| 2026-05-05 14:24 | 44.57980 | 10.08421 | 27074 ft | 433 kts | 155° |
| 2026-05-05 14:24 | 44.55370 | 10.10558 | 27409 ft | 435 kts | 155° |
| 2026-05-05 14:24 | 44.52748 | 10.12700 | 27721 ft | 437 kts | 156° |
| 2026-05-05 14:25 | 44.50113 | 10.14850 | 28051 ft | 439 kts | 156° |
| 2026-05-05 14:25 | 44.47419 | 10.16851 | 28371 ft | 435 kts | 163° |
| 2026-05-05 14:25 | 44.44622 | 10.18477 | 28681 ft | 437 kts | 163° |
| 2026-05-05 14:25 | 44.41822 | 10.20160 | 28987 ft | 439 kts | 162° |
| 2026-05-05 14:26 | 44.39015 | 10.21869 | 29243 ft | 440 kts | 162° |
| 2026-05-05 14:26 | 44.36204 | 10.23576 | 29531 ft | 442 kts | 162° |
| 2026-05-05 14:26 | 44.33376 | 10.25275 | 29808 ft | 443 kts | 162° |
| 2026-05-05 14:26 | 44.30534 | 10.26960 | 30068 ft | 444 kts | 163° |
| 2026-05-05 14:27 | 44.27674 | 10.28616 | 30275 ft | 445 kts | 164° |
| 2026-05-05 14:27 | 44.24779 | 10.30168 | 30465 ft | 446 kts | 166° |
| 2026-05-05 14:27 | 44.21858 | 10.31629 | 30695 ft | 446 kts | 166° |
| 2026-05-05 14:27 | 44.18920 | 10.33045 | 30938 ft | 447 kts | 167° |
| 2026-05-05 14:28 | 44.15988 | 10.34448 | 31246 ft | 446 kts | 167° |
| 2026-05-05 14:28 | 44.13055 | 10.35862 | 31481 ft | 446 kts | 167° |
| 2026-05-05 14:28 | 44.10121 | 10.37296 | 31645 ft | 448 kts | 167° |
| 2026-05-05 14:28 | 44.07182 | 10.38755 | 31868 ft | 449 kts | 167° |
| 2026-05-05 14:29 | 44.04243 | 10.40231 | 32129 ft | 448 kts | 167° |
| 2026-05-05 14:29 | 44.01310 | 10.41705 | 32417 ft | 448 kts | 167° |
| 2026-05-05 14:29 | 43.98380 | 10.43171 | 32723 ft | 447 kts | 167° |
| 2026-05-05 14:29 | 43.95461 | 10.44625 | 32968 ft | 446 kts | 167° |
| 2026-05-05 14:30 | 43.92537 | 10.46074 | 33225 ft | 446 kts | 168° |
| 2026-05-05 14:30 | 43.89614 | 10.47516 | 33505 ft | 445 kts | 168° |
| 2026-05-05 14:30 | 43.86700 | 10.48952 | 33798 ft | 445 kts | 168° |
| 2026-05-05 14:30 | 43.83786 | 10.50386 | 34058 ft | 444 kts | 168° |
| 2026-05-05 14:31 | 43.80875 | 10.51819 | 34310 ft | 444 kts | 168° |
| 2026-05-05 14:31 | 43.77966 | 10.53251 | 34563 ft | 443 kts | 168° |
| 2026-05-05 14:31 | 43.75034 | 10.54435 | 34767 ft | 435 kts | 176° |
| 2026-05-05 14:31 | 43.72069 | 10.55271 | 35001 ft | 435 kts | 176° |
| 2026-05-05 14:32 | 43.69103 | 10.56104 | 35228 ft | 435 kts | 176° |
| 2026-05-05 14:32 | 43.66141 | 10.56933 | 35425 ft | 435 kts | 176° |
| 2026-05-05 14:32 | 43.63177 | 10.57761 | 35599 ft | 435 kts | 176° |
| 2026-05-05 14:32 | 43.60206 | 10.58588 | 35720 ft | 436 kts | 176° |
| 2026-05-05 14:33 | 43.57228 | 10.59421 | 35854 ft | 437 kts | 176° |
| 2026-05-05 14:33 | 43.54248 | 10.60258 | 36014 ft | 437 kts | 176° |
| 2026-05-05 14:33 | 43.51266 | 10.61098 | 36170 ft | 438 kts | 176° |
| 2026-05-05 14:33 | 43.48283 | 10.61936 | 36350 ft | 438 kts | 176° |
| 2026-05-05 14:34 | 43.45342 | 10.62763 | 36547 ft | 437 kts | 176° |
| 2026-05-05 14:34 | 43.42360 | 10.63601 | 36727 ft | 437 kts | 176° |
| 2026-05-05 14:34 | 43.39385 | 10.64430 | 36902 ft | 436 kts | 176° |
| 2026-05-05 14:34 | 43.36409 | 10.65255 | 36983 ft | 437 kts | 176° |
| 2026-05-05 14:35 | 43.30453 | 10.66912 | 36996 ft | 437 kts | 176° |
| 2026-05-05 14:35 | 43.24500 | 10.68570 | 36993 ft | 436 kts | 176° |
| 2026-05-05 14:36 | 43.18557 | 10.70214 | 36993 ft | 436 kts | 176° |
| 2026-05-05 14:36 | 43.12604 | 10.71861 | 36977 ft | 437 kts | 176° |
| 2026-05-05 14:37 | 43.06647 | 10.73510 | 36985 ft | 437 kts | 176° |
| 2026-05-05 14:37 | 43.00690 | 10.75162 | 36988 ft | 437 kts | 176° |
| 2026-05-05 14:38 | 42.94721 | 10.76804 | 36989 ft | 437 kts | 176° |
| 2026-05-05 14:38 | 42.88760 | 10.78439 | 36973 ft | 437 kts | 176° |
| 2026-05-05 14:39 | 42.82797 | 10.80075 | 36982 ft | 437 kts | 176° |
| 2026-05-05 14:39 | 42.76828 | 10.81708 | 36989 ft | 438 kts | 176° |
| 2026-05-05 14:40 | 42.70891 | 10.83329 | 36972 ft | 438 kts | 176° |
| 2026-05-05 14:40 | 42.64908 | 10.84956 | 36980 ft | 439 kts | 176° |
| 2026-05-05 14:41 | 42.58918 | 10.86585 | 36984 ft | 439 kts | 176° |
| 2026-05-05 14:41 | 42.53934 | 10.87937 | 37003 ft | 439 kts | 176° |
| 2026-05-05 14:42 | 42.47937 | 10.89556 | 36990 ft | 439 kts | 176° |
| 2026-05-05 14:42 | 42.41940 | 10.91173 | 37005 ft | 439 kts | 176° |
| 2026-05-05 14:43 | 42.35951 | 10.92884 | 37016 ft | 444 kts | 171° |
| 2026-05-05 14:43 | 42.30016 | 10.95284 | 37011 ft | 445 kts | 171° |
| 2026-05-05 14:44 | 42.24082 | 10.97673 | 37013 ft | 445 kts | 171° |
| 2026-05-05 14:44 | 42.18147 | 11.00046 | 37009 ft | 445 kts | 171° |
| 2026-05-05 14:45 | 42.12212 | 11.02411 | 37016 ft | 445 kts | 171° |
| 2026-05-05 14:45 | 42.06271 | 11.04779 | 36993 ft | 445 kts | 171° |
| 2026-05-05 14:46 | 42.00335 | 11.07138 | 37005 ft | 445 kts | 171° |
| 2026-05-05 14:46 | 41.94399 | 11.09497 | 37006 ft | 445 kts | 171° |
| 2026-05-05 14:47 | 41.88461 | 11.11846 | 37014 ft | 445 kts | 171° |
| 2026-05-05 14:47 | 41.82526 | 11.14195 | 37006 ft | 445 kts | 171° |
| 2026-05-05 14:48 | 41.76587 | 11.16548 | 37009 ft | 445 kts | 172° |
| 2026-05-05 14:48 | 41.70649 | 11.18886 | 37011 ft | 445 kts | 172° |
| 2026-05-05 14:49 | 41.64751 | 11.21203 | 36994 ft | 445 kts | 172° |
| 2026-05-05 14:49 | 41.58812 | 11.23541 | 37001 ft | 445 kts | 172° |
| 2026-05-05 14:50 | 41.52870 | 11.25859 | 37006 ft | 445 kts | 172° |
| 2026-05-05 14:50 | 41.46883 | 11.28184 | 37014 ft | 445 kts | 172° |
| 2026-05-05 14:51 | 41.40980 | 11.30490 | 36994 ft | 445 kts | 171° |
| 2026-05-05 14:51 | 41.35029 | 11.32812 | 36991 ft | 446 kts | 171° |
| 2026-05-05 14:52 | 41.29065 | 11.35132 | 37003 ft | 447 kts | 171° |
| 2026-05-05 14:52 | 41.23098 | 11.37449 | 37012 ft | 447 kts | 171° |
| 2026-05-05 14:53 | 41.17124 | 11.39768 | 37011 ft | 447 kts | 171° |
| 2026-05-05 14:53 | 41.11148 | 11.42070 | 37025 ft | 447 kts | 171° |
| 2026-05-05 14:54 | 41.05177 | 11.44378 | 37031 ft | 447 kts | 171° |
| 2026-05-05 14:54 | 40.99204 | 11.46683 | 37039 ft | 447 kts | 171° |
| 2026-05-05 14:55 | 40.93226 | 11.48975 | 37022 ft | 447 kts | 171° |
| 2026-05-05 14:55 | 40.87239 | 11.51267 | 37026 ft | 448 kts | 171° |
| 2026-05-05 14:56 | 40.81256 | 11.53569 | 37027 ft | 448 kts | 171° |
| 2026-05-05 14:56 | 40.75276 | 11.55855 | 37005 ft | 448 kts | 171° |
| 2026-05-05 14:57 | 40.69288 | 11.58131 | 37011 ft | 448 kts | 171° |
| 2026-05-05 14:57 | 40.63291 | 11.60413 | 37022 ft | 449 kts | 171° |
| 2026-05-05 14:58 | 40.57288 | 11.62696 | 37026 ft | 449 kts | 171° |
| 2026-05-05 14:58 | 40.51324 | 11.64955 | 37013 ft | 449 kts | 171° |
| 2026-05-05 14:59 | 40.45320 | 11.67229 | 37020 ft | 449 kts | 171° |
| 2026-05-05 14:59 | 40.39310 | 11.69507 | 37012 ft | 450 kts | 171° |
| 2026-05-05 15:00 | 40.34269 | 11.71414 | 37017 ft | 450 kts | 171° |
| 2026-05-05 15:00 | 40.27265 | 11.74051 | 37008 ft | 451 kts | 171° |
| 2026-05-05 15:01 | 40.21228 | 11.76321 | 37025 ft | 451 kts | 171° |
| 2026-05-05 15:01 | 40.15188 | 11.78584 | 37034 ft | 452 kts | 171° |
| 2026-05-05 15:02 | 40.09140 | 11.80848 | 37042 ft | 452 kts | 171° |
| 2026-05-05 15:02 | 40.03090 | 11.83104 | 37044 ft | 452 kts | 171° |
| 2026-05-05 15:03 | 39.97044 | 11.85364 | 37046 ft | 452 kts | 171° |
| 2026-05-05 15:03 | 39.90993 | 11.87618 | 37049 ft | 452 kts | 171° |
| 2026-05-05 15:04 | 39.84936 | 11.89778 | 37041 ft | 450 kts | 173° |
| 2026-05-05 15:04 | 39.78830 | 11.91396 | 37043 ft | 447 kts | 176° |
| 2026-05-05 15:05 | 39.69641 | 11.93481 | 37039 ft | 447 kts | 176° |
| 2026-05-05 15:06 | 39.63522 | 11.94989 | 37025 ft | 448 kts | 175° |
| 2026-05-05 15:06 | 39.57406 | 11.96562 | 37030 ft | 448 kts | 174° |
| 2026-05-05 15:07 | 39.51284 | 11.98131 | 37029 ft | 449 kts | 175° |
| 2026-05-05 15:07 | 39.45155 | 11.99664 | 37034 ft | 449 kts | 175° |
| 2026-05-05 15:08 | 39.39024 | 12.01177 | 37023 ft | 449 kts | 175° |
| 2026-05-05 15:08 | 39.32892 | 12.02708 | 37029 ft | 449 kts | 174° |
| 2026-05-05 15:09 | 39.26782 | 12.04242 | 37032 ft | 448 kts | 174° |
| 2026-05-05 15:09 | 39.20673 | 12.05764 | 37024 ft | 449 kts | 175° |
| 2026-05-05 15:10 | 39.14542 | 12.07287 | 37012 ft | 449 kts | 175° |
| 2026-05-05 15:10 | 39.08402 | 12.08808 | 37014 ft | 450 kts | 175° |
| 2026-05-05 15:11 | 39.02249 | 12.10323 | 37015 ft | 450 kts | 174° |
| 2026-05-05 15:11 | 38.96094 | 12.11852 | 37018 ft | 450 kts | 174° |
| 2026-05-05 15:12 | 38.89942 | 12.13375 | 37009 ft | 450 kts | 174° |
| 2026-05-05 15:12 | 38.83794 | 12.14887 | 37015 ft | 450 kts | 174° |
| 2026-05-05 15:13 | 38.77640 | 12.16410 | 37017 ft | 450 kts | 174° |
| 2026-05-05 15:13 | 38.71493 | 12.17919 | 37020 ft | 450 kts | 174° |
| 2026-05-05 15:14 | 38.65349 | 12.19431 | 37023 ft | 449 kts | 174° |
| 2026-05-05 15:14 | 38.59252 | 12.20924 | 37016 ft | 449 kts | 174° |
| 2026-05-05 15:15 | 38.53114 | 12.22417 | 37025 ft | 449 kts | 175° |
| 2026-05-05 15:15 | 38.46978 | 12.23900 | 37011 ft | 449 kts | 174° |
| 2026-05-05 15:16 | 38.40840 | 12.25392 | 37020 ft | 449 kts | 174° |
| 2026-05-05 15:16 | 38.34707 | 12.26890 | 37027 ft | 449 kts | 174° |
| 2026-05-05 15:17 | 38.28571 | 12.28383 | 37032 ft | 449 kts | 174° |
| 2026-05-05 15:17 | 38.22437 | 12.29875 | 37025 ft | 449 kts | 174° |
| 2026-05-05 15:18 | 38.16298 | 12.31355 | 37038 ft | 449 kts | 174° |
| 2026-05-05 15:18 | 38.10157 | 12.32830 | 37047 ft | 449 kts | 174° |
| 2026-05-05 15:19 | 38.04021 | 12.34302 | 37054 ft | 448 kts | 174° |
| 2026-05-05 15:19 | 37.97894 | 12.35784 | 37037 ft | 448 kts | 174° |
| 2026-05-05 15:20 | 37.91768 | 12.37253 | 37075 ft | 448 kts | 174° |
| 2026-05-05 15:20 | 37.85678 | 12.38704 | 37077 ft | 448 kts | 174° |
| 2026-05-05 15:21 | 37.79545 | 12.40173 | 37076 ft | 449 kts | 174° |
| 2026-05-05 15:21 | 37.73408 | 12.41642 | 37062 ft | 449 kts | 174° |
| 2026-05-05 15:22 | 37.67266 | 12.43105 | 37056 ft | 449 kts | 174° |
| 2026-05-05 15:22 | 37.61118 | 12.44580 | 37054 ft | 450 kts | 174° |
| 2026-05-05 15:23 | 37.54965 | 12.46043 | 37054 ft | 450 kts | 174° |
| 2026-05-05 15:23 | 37.48816 | 12.47503 | 37042 ft | 450 kts | 174° |
| 2026-05-05 15:24 | 37.42663 | 12.48954 | 37051 ft | 450 kts | 174° |
| 2026-05-05 15:24 | 37.36510 | 12.50403 | 37065 ft | 450 kts | 174° |
| 2026-05-05 15:25 | 37.30359 | 12.51863 | 37069 ft | 450 kts | 174° |
| 2026-05-05 15:25 | 37.24206 | 12.53312 | 37056 ft | 450 kts | 174° |
| 2026-05-05 15:26 | 37.18240 | 12.55823 | 37039 ft | 461 kts | 155° |
| 2026-05-05 15:26 | 37.15547 | 12.58040 | 36774 ft | 466 kts | 144° |
| 2026-05-05 15:26 | 37.13179 | 12.60839 | 36150 ft | 472 kts | 134° |
| 2026-05-05 15:26 | 37.11056 | 12.64005 | 35323 ft | 476 kts | 133° |
| 2026-05-05 15:27 | 37.08960 | 12.67159 | 34460 ft | 479 kts | 133° |
| 2026-05-05 15:27 | 37.06817 | 12.70381 | 33455 ft | 484 kts | 132° |
| 2026-05-05 15:27 | 37.04634 | 12.73655 | 32781 ft | 480 kts | 132° |
| 2026-05-05 15:27 | 37.02503 | 12.76842 | 32184 ft | 475 kts | 132° |
| 2026-05-05 15:28 | 37.00386 | 12.79992 | 31571 ft | 471 kts | 132° |
| 2026-05-05 15:28 | 36.98281 | 12.83110 | 30963 ft | 467 kts | 132° |
| 2026-05-05 15:28 | 36.96190 | 12.86203 | 30365 ft | 464 kts | 132° |
| 2026-05-05 15:28 | 36.94137 | 12.89236 | 29727 ft | 461 kts | 132° |
| 2026-05-05 15:29 | 36.92078 | 12.92282 | 29144 ft | 457 kts | 132° |
| 2026-05-05 15:29 | 36.90041 | 12.95300 | 28564 ft | 452 kts | 132° |
| 2026-05-05 15:29 | 36.88023 | 12.98290 | 27996 ft | 448 kts | 132° |
| 2026-05-05 15:29 | 36.86022 | 13.01249 | 27432 ft | 444 kts | 132° |
| 2026-05-05 15:30 | 36.84035 | 13.04179 | 26889 ft | 440 kts | 132° |
| 2026-05-05 15:30 | 36.82066 | 13.07082 | 26350 ft | 436 kts | 132° |
| 2026-05-05 15:30 | 36.80116 | 13.09957 | 25834 ft | 432 kts | 132° |
| 2026-05-05 15:30 | 36.78181 | 13.12808 | 25316 ft | 429 kts | 133° |
| 2026-05-05 15:31 | 36.76263 | 13.15628 | 24826 ft | 425 kts | 133° |
| 2026-05-05 15:31 | 36.74353 | 13.18431 | 24327 ft | 422 kts | 133° |
| 2026-05-05 15:31 | 36.72470 | 13.21194 | 24045 ft | 413 kts | 133° |
| 2026-05-05 15:31 | 36.70619 | 13.23909 | 23587 ft | 410 kts | 133° |
| 2026-05-05 15:32 | 36.69398 | 13.25697 | 23217 ft | 409 kts | 133° |
| 2026-05-05 15:32 | 36.67563 | 13.28382 | 22726 ft | 405 kts | 133° |
| 2026-05-05 15:32 | 36.65743 | 13.31044 | 22241 ft | 402 kts | 133° |
| 2026-05-05 15:32 | 36.63934 | 13.33688 | 21746 ft | 400 kts | 133° |
| 2026-05-05 15:33 | 36.62133 | 13.36315 | 21259 ft | 398 kts | 133° |
| 2026-05-05 15:33 | 36.60340 | 13.38931 | 20749 ft | 396 kts | 133° |
| 2026-05-05 15:33 | 36.58557 | 13.41534 | 20256 ft | 394 kts | 133° |
| 2026-05-05 15:33 | 36.56781 | 13.44127 | 19753 ft | 393 kts | 133° |
| 2026-05-05 15:34 | 36.55008 | 13.46715 | 19259 ft | 392 kts | 133° |
| 2026-05-05 15:34 | 36.53238 | 13.49293 | 18745 ft | 392 kts | 133° |
| 2026-05-05 15:34 | 36.51471 | 13.51867 | 18237 ft | 391 kts | 133° |
| 2026-05-05 15:34 | 36.49706 | 13.54432 | 17702 ft | 389 kts | 133° |
| 2026-05-05 15:35 | 36.47951 | 13.56977 | 17213 ft | 387 kts | 133° |
| 2026-05-05 15:35 | 36.46230 | 13.59468 | 16737 ft | 384 kts | 133° |
| 2026-05-05 15:35 | 36.43913 | 13.62819 | 16093 ft | 381 kts | 133° |
| 2026-05-05 15:35 | 36.42774 | 13.64466 | 15782 ft | 379 kts | 133° |
| 2026-05-05 15:36 | 36.41070 | 13.66937 | 15302 ft | 370 kts | 133° |
| 2026-05-05 15:36 | 36.39429 | 13.69316 | 14861 ft | 356 kts | 133° |
| 2026-05-05 15:36 | 36.37845 | 13.71610 | 14422 ft | 347 kts | 133° |
| 2026-05-05 15:36 | 36.36273 | 13.73880 | 13974 ft | 347 kts | 133° |
| 2026-05-05 15:37 | 36.34696 | 13.76156 | 13496 ft | 347 kts | 133° |
| 2026-05-05 15:37 | 36.33125 | 13.78421 | 13038 ft | 346 kts | 133° |
| 2026-05-05 15:37 | 36.31562 | 13.80676 | 12590 ft | 344 kts | 133° |
| 2026-05-05 15:37 | 36.30020 | 13.82896 | 12135 ft | 334 kts | 133° |
| 2026-05-05 15:38 | 36.28520 | 13.85050 | 11703 ft | 329 kts | 133° |
| 2026-05-05 15:38 | 36.27027 | 13.87189 | 11266 ft | 328 kts | 132° |
| 2026-05-05 15:38 | 36.25537 | 13.89326 | 10820 ft | 327 kts | 132° |
| 2026-05-05 15:38 | 36.24051 | 13.91457 | 10381 ft | 326 kts | 132° |
| 2026-05-05 15:39 | 36.22590 | 13.93552 | 10259 ft | 315 kts | 132° |
| 2026-05-05 15:39 | 36.21189 | 13.95568 | 10143 ft | 303 kts | 132° |
| 2026-05-05 15:39 | 36.19832 | 13.97524 | 9951 ft | 299 kts | 132° |
| 2026-05-05 15:39 | 36.18457 | 13.99499 | 9338 ft | 305 kts | 132° |
| 2026-05-05 15:40 | 36.17076 | 14.01478 | 8818 ft | 301 kts | 132° |
| 2026-05-05 15:40 | 36.15734 | 14.03401 | 8327 ft | 290 kts | 132° |
| 2026-05-05 15:40 | 36.14440 | 14.05257 | 7874 ft | 280 kts | 132° |
| 2026-05-05 15:40 | 36.13190 | 14.07051 | 7399 ft | 271 kts | 131° |
| 2026-05-05 15:41 | 36.11965 | 14.08803 | 6963 ft | 267 kts | 131° |
| 2026-05-05 15:41 | 36.10752 | 14.10533 | 6519 ft | 266 kts | 131° |
| 2026-05-05 15:41 | 36.09547 | 14.12249 | 6047 ft | 260 kts | 131° |
| 2026-05-05 15:41 | 36.08383 | 14.13908 | 5622 ft | 252 kts | 131° |
| 2026-05-05 15:42 | 36.07265 | 14.15499 | 5209 ft | 247 kts | 132° |
| 2026-05-05 15:42 | 36.06143 | 14.17095 | 4744 ft | 244 kts | 133° |
| 2026-05-05 15:42 | 36.05042 | 14.18663 | 4501 ft | 237 kts | 133° |
| 2026-05-05 15:42 | 36.03997 | 14.20256 | 4423 ft | 239 kts | 123° |
| 2026-05-05 15:43 | 36.03273 | 14.22068 | 4326 ft | 235 kts | 111° |
| 2026-05-05 15:43 | 36.02722 | 14.23967 | 4234 ft | 235 kts | 111° |
| 2026-05-05 15:43 | 36.02162 | 14.25849 | 4133 ft | 230 kts | 112° |
| 2026-05-05 15:43 | 36.01618 | 14.27670 | 4032 ft | 224 kts | 113° |
| 2026-05-05 15:44 | 36.00816 | 14.29273 | 3883 ft | 219 kts | 140° |
| 2026-05-05 15:44 | 35.99651 | 14.30482 | 3704 ft | 218 kts | 139° |
| 2026-05-05 15:44 | 35.98587 | 14.31775 | 3511 ft | 212 kts | 137° |
| 2026-05-05 15:44 | 35.97568 | 14.33051 | 3354 ft | 205 kts | 137° |
| 2026-05-05 15:45 | 35.96586 | 14.34278 | 3219 ft | 199 kts | 137° |
| 2026-05-05 15:45 | 35.95621 | 14.35479 | 3042 ft | 194 kts | 136° |
| 2026-05-05 15:45 | 35.94676 | 14.36655 | 2768 ft | 192 kts | 136° |
| 2026-05-05 15:45 | 35.93752 | 14.37806 | 2516 ft | 186 kts | 137° |
| 2026-05-05 15:46 | 35.92869 | 14.38905 | 2274 ft | 175 kts | 136° |
| 2026-05-05 15:46 | 35.92043 | 14.39932 | 2044 ft | 162 kts | 136° |
| 2026-05-05 15:46 | 35.91289 | 14.40871 | 1865 ft | 145 kts | 137° |
| 2026-05-05 15:46 | 35.90603 | 14.41723 | 1662 ft | 135 kts | 137° |
| 2026-05-05 15:47 | 35.89952 | 14.42536 | 1471 ft | 131 kts | 135° |
| 2026-05-05 15:47 | 35.89520 | 14.43066 | 1358 ft | 131 kts | 135° |
| 2026-05-05 15:47 | 35.88675 | 14.44136 | 1142 ft | 130 kts | 134° |
| 2026-05-05 15:47 | 35.88032 | 14.44937 | 946 ft | 131 kts | 136° |
| 2026-05-05 15:48 | 35.87374 | 14.45732 | 761 ft | 134 kts | 135° |
| 2026-05-05 15:48 | 35.86718 | 14.46538 | 624 ft | 132 kts | 134° |
| 2026-05-05 15:48 | 35.86081 | 14.47337 | 454 ft | 129 kts | 134° |
| 2026-05-05 15:48 | 35.85451 | 14.48111 | 304 ft | 127 kts | 133° |
| 2026-05-05 15:49 | 35.84893 | 14.48810 | 259 ft | 84 kts | 134° |
| 2026-05-05 15:49 | 35.84702 | 14.49048 | 259 ft | 2 kts | 136° |
| 2026-05-05 15:49 | 35.84676 | 14.49080 | 259 ft | 9 kts | 136° |
| 2026-05-05 15:49 | 35.84644 | 14.49118 | 259 ft | 10 kts | 136° |
| 2026-05-05 15:50 | 35.84569 | 14.49211 | 259 ft | 20 kts | 134° |
| 2026-05-05 15:50 | 35.84481 | 14.49370 | 259 ft | 24 kts | 116° |
| 2026-05-05 15:50 | 35.84446 | 14.49503 | 259 ft | 14 kts | 93° |
| 2026-05-05 15:50 | 35.84513 | 14.49565 | 259 ft | 14 kts | 345° |
| 2026-05-05 15:51 | 35.84591 | 14.49546 | 259 ft | 11 kts | 32° |
| 2026-05-05 15:51 | 35.84656 | 14.49572 | 259 ft | 9 kts | 354° |
| 2026-05-05 15:51 | 35.84711 | 14.49541 | 259 ft | 8 kts | 319° |
| 2026-05-05 15:51 | 35.84751 | 14.49493 | 259 ft | 8 kts | 314° |
| 2026-05-05 15:52 | 35.84793 | 14.49461 | 259 ft | 7 kts | 344° |
| 2026-05-05 15:52 | 35.84838 | 14.49456 | 259 ft | 6 kts | 358° |
| 2026-05-05 15:52 | 35.84857 | 14.49456 | 259 ft | 0 kts | 0° |
| 2026-05-05 15:52 | 35.84861 | 14.49456 | 259 ft | 0 kts | 360° |